CheckWX is a tool to help pilots better visualize weather data.  It is not intended as a substitute for an official pre-flight weather briefing.

20:18:09 UTC

KBAM METAR
Battle Mountain Airport
Battle Mountain, Nevada, USA
Current

23 mins ago

KBAM 261955Z AUTO 32014KT 10SM SCT036 SCT043 SCT048 09/08 A2969 RMK AO1
Observed
May-26 @ 19:55 UTC
Wind
  • 320° at 14 KTS
Visibility
10 SM
Flight Rules
VFR
Cloud Levels
  • Scattered at 3,600' AGL
  • Scattered at 4,300' AGL
  • Scattered at 4,800' AGL
Temperature
C / 48°F
Dewpoint
C / 46°F
Humidity
94%
Altimeter
29.69" Hg
Pressure
1005.42 hPa
Previous

43 mins ago

KBAM 261935Z AUTO 25011G26KT 2SM SCT020 BKN032 OVC050 07/05 A2971 RMK AO1 VIS 1 1/4V4
Observed
May-26 @ 19:35 UTC
Wind
  • 250° at 11 KTS
  • Gusting to 26 KTS
Visibility
2 SM
Flight Rules
IFR
Cloud Levels
  • Scattered at 2,000' AGL
  • Broken at 3,200' AGL
  • Overcast at 5,000' AGL
Temperature
C / 45°F
Dewpoint
C / 41°F
Humidity
87%
Altimeter
29.71" Hg
Pressure
1006.12 hPa
Previous

1 hour ago

KBAM 261915Z AUTO 21006KT 10SM SCT055 12/05 A2970 RMK AO1
Observed
May-26 @ 19:15 UTC
Wind
  • 210° at 6 KTS
Visibility
10 SM
Flight Rules
VFR
Cloud Levels
  • Scattered at 5,500' AGL
Temperature
12°C / 54°F
Dewpoint
C / 41°F
Humidity
63%
Altimeter
29.7" Hg
Pressure
1005.72 hPa